createdAt,value
2024-03-02T00:03:26.239Z,84.50
2024-03-02T00:08:28.785Z,86.30
2024-03-02T00:13:34.948Z,83.20
2024-03-02T00:18:38.020Z,85.30
2024-03-02T00:23:40.851Z,77.70
2024-03-02T00:28:47.475Z,86.50
2024-03-02T00:33:50.396Z,79.00
2024-03-02T00:38:55.267Z,86.00
2024-03-02T00:44:09.528Z,81.80
2024-03-02T00:49:27.101Z,78.20
2024-03-02T00:54:30.237Z,84.50
2024-03-02T00:59:33.145Z,82.80
2024-03-02T01:04:35.434Z,81.70
2024-03-02T01:09:37.370Z,83.50
2024-03-02T01:14:39.218Z,86.40
2024-03-02T01:19:43.208Z,84.60
2024-03-02T01:24:45.275Z,84.60
2024-03-02T01:29:47.351Z,83.70
2024-03-02T01:34:49.600Z,85.70
2024-03-02T01:39:51.817Z,80.90
2024-03-02T01:44:53.923Z,81.00
2024-03-02T01:49:55.909Z,86.70
2024-03-02T01:54:57.897Z,83.00
2024-03-02T02:00:00.021Z,78.30
2024-03-02T02:05:01.912Z,77.80
2024-03-02T02:10:04.113Z,75.60
2024-03-02T02:15:32.033Z,73.40
2024-03-02T02:20:34.385Z,70.40
2024-03-02T02:25:36.479Z,71.50
2024-03-02T02:30:38.786Z,68.30
2024-03-02T02:35:40.737Z,68.00
2024-03-02T02:40:42.647Z,69.90
2024-03-02T02:45:44.500Z,71.20
2024-03-02T02:50:46.564Z,59.00
2024-03-02T02:55:48.482Z,60.60
2024-03-02T03:00:50.777Z,60.20
2024-03-02T03:05:52.945Z,60.50
2024-03-02T03:10:54.827Z,59.60
2024-03-02T03:15:57.230Z,61.30
2024-03-02T03:20:59.263Z,63.30
2024-03-02T03:26:02.071Z,61.20
2024-03-02T03:31:04.718Z,58.90
2024-03-02T03:36:07.005Z,58.70
2024-03-02T03:41:09.049Z,57.80
2024-03-02T03:46:11.721Z,58.00
2024-03-02T03:51:13.686Z,59.80
2024-03-02T03:56:15.669Z,59.20
2024-03-02T04:01:17.789Z,61.20
2024-03-02T04:06:19.948Z,62.70
2024-03-02T04:11:22.029Z,63.40
2024-03-02T04:16:24.152Z,58.80
2024-03-02T04:21:26.009Z,56.80
2024-03-02T04:26:28.096Z,57.70
2024-03-02T04:31:30.261Z,55.10
2024-03-02T04:36:32.575Z,58.10
2024-03-02T04:41:34.525Z,52.90
2024-03-02T04:46:36.518Z,58.70
2024-03-02T04:51:38.691Z,60.00
2024-03-02T04:56:51.253Z,58.80
2024-03-02T05:01:53.477Z,53.50
2024-03-02T05:06:57.449Z,50.30
2024-03-02T05:12:18.481Z,51.80
2024-03-02T05:17:20.320Z,55.40
2024-03-02T05:22:22.147Z,53.00
2024-03-02T05:27:24.163Z,51.50
2024-03-02T05:32:26.752Z,56.60
2024-03-02T05:37:29.644Z,51.70
2024-03-02T05:42:31.680Z,52.50
2024-03-02T05:47:34.310Z,53.60
2024-03-02T05:52:36.344Z,47.60
2024-03-02T05:57:57.042Z,50.10
2024-03-02T06:02:59.294Z,54.60
2024-03-02T06:08:01.256Z,48.40
2024-03-02T06:13:03.251Z,50.10
2024-03-02T06:18:07.863Z,54.10
2024-03-02T06:23:10.544Z,56.30
2024-03-02T06:28:12.464Z,55.40
2024-03-02T06:33:14.489Z,56.10
2024-03-02T06:38:16.448Z,55.70
2024-03-02T06:43:18.429Z,59.20
2024-03-02T06:48:24.349Z,55.20
2024-03-02T06:53:26.807Z,58.50
2024-03-02T06:58:28.804Z,51.80
2024-03-02T07:03:30.965Z,51.30
2024-03-02T07:08:33.048Z,55.10
2024-03-02T07:13:35.974Z,53.40
2024-03-02T07:18:46.607Z,54.70
2024-03-02T07:23:48.583Z,50.50
2024-03-02T07:28:50.591Z,52.60
2024-03-02T07:33:52.820Z,53.30
2024-03-02T07:38:55.820Z,51.70
2024-03-02T07:43:58.092Z,48.40
2024-03-02T07:49:00.192Z,54.50
2024-03-02T07:54:02.196Z,55.60
2024-03-02T07:59:05.239Z,53.10
2024-03-02T08:04:07.921Z,48.60
2024-03-02T08:09:13.776Z,52.00
2024-03-02T08:14:15.757Z,50.30
2024-03-02T08:19:17.923Z,47.60
2024-03-02T08:24:20.306Z,55.50
2024-03-02T08:29:22.393Z,58.80
2024-03-02T08:34:27.921Z,54.90
2024-03-02T08:39:29.942Z,52.60
2024-03-02T08:44:32.444Z,55.40
2024-03-02T08:49:35.538Z,50.00
2024-03-02T08:54:37.603Z,51.30
2024-03-02T08:59:40.314Z,53.50
2024-03-02T09:04:42.380Z,53.00
2024-03-02T09:09:44.358Z,55.10
2024-03-02T09:14:48.592Z,52.40
2024-03-02T09:19:54.014Z,50.10
2024-03-02T09:24:56.036Z,48.80
2024-03-02T09:29:57.918Z,49.70
2024-03-02T09:35:00.139Z,53.80
2024-03-02T09:40:02.268Z,49.50
2024-03-02T09:45:04.786Z,53.40
2024-03-02T09:50:08.539Z,51.40
2024-03-02T09:55:10.978Z,57.90
2024-03-02T10:00:16.283Z,53.60
2024-03-02T10:05:27.063Z,51.80
2024-03-02T10:10:40.999Z,49.00
2024-03-02T10:15:43.681Z,51.70
2024-03-02T10:20:45.883Z,52.40
2024-03-02T10:25:54.934Z,46.50
2024-03-02T10:31:00.408Z,45.50
2024-03-02T10:36:03.513Z,46.00
2024-03-02T10:41:06.019Z,47.60
2024-03-02T10:46:07.926Z,42.70
2024-03-02T10:51:09.868Z,43.10
2024-03-02T10:56:17.538Z,42.40
2024-03-02T11:01:21.291Z,42.10
2024-03-02T11:06:24.877Z,41.80
2024-03-02T11:11:36.112Z,45.30
2024-03-02T11:16:40.936Z,49.60
2024-03-02T11:21:44.650Z,45.90
2024-03-02T11:26:46.896Z,44.80
2024-03-02T11:32:19.417Z,44.10
2024-03-02T11:37:22.016Z,36.20
2024-03-02T11:42:24.094Z,35.00
2024-03-02T11:47:34.683Z,35.40
2024-03-02T11:52:37.985Z,32.40
2024-03-02T11:57:39.966Z,33.70
2024-03-02T12:02:46.244Z,31.30
2024-03-02T12:07:48.779Z,27.10
2024-03-02T12:13:00.106Z,31.30
2024-03-02T12:18:03.729Z,30.40
2024-03-02T12:23:06.891Z,17.80
2024-03-02T12:28:09.949Z,8.40
2024-03-02T12:33:12.930Z,9.40
2024-03-02T12:38:16.163Z,8.80
2024-03-02T12:43:18.128Z,10.40
2024-03-02T12:48:20.329Z,10.90
2024-03-02T12:53:23.041Z,11.10
2024-03-02T12:58:25.210Z,12.60
2024-03-02T13:03:27.368Z,13.40
2024-03-02T13:08:29.380Z,10.60
2024-03-02T13:13:35.653Z,9.70
2024-03-02T13:18:39.601Z,13.00
2024-03-02T13:23:41.528Z,13.30
2024-03-02T13:28:43.461Z,16.20
2024-03-02T13:33:45.632Z,17.30
2024-03-02T13:38:47.504Z,19.40
2024-03-02T13:43:51.211Z,20.20
2024-03-02T13:48:55.429Z,20.50
2024-03-02T13:54:00.361Z,21.10
2024-03-02T13:59:02.388Z,24.60
2024-03-02T14:04:04.594Z,23.70
2024-03-02T14:09:06.500Z,21.20
2024-03-02T14:14:08.506Z,23.50
2024-03-02T14:19:10.948Z,23.40
2024-03-02T14:24:13.112Z,26.40
2024-03-02T14:29:15.381Z,28.00
2024-03-02T14:34:17.502Z,28.60
2024-03-02T14:39:20.961Z,31.10
2024-03-02T14:44:23.326Z,32.30
2024-03-02T14:49:26.325Z,31.50
2024-03-02T14:54:28.324Z,32.40
2024-03-02T14:59:31.043Z,33.40
2024-03-02T15:04:33.022Z,29.00
2024-03-02T15:09:36.860Z,31.40
2024-03-02T15:14:39.843Z,31.00
2024-03-02T15:19:42.362Z,28.90
2024-03-02T15:24:45.142Z,26.70
2024-03-02T15:29:49.411Z,23.90
2024-03-02T15:34:51.452Z,23.70
2024-03-02T15:39:53.594Z,21.50
2024-03-02T15:44:56.232Z,23.20
2024-03-02T15:49:58.112Z,22.60
2024-03-02T15:55:00.244Z,22.40
2024-03-02T16:00:02.208Z,21.60
2024-03-02T16:05:14.427Z,28.50
2024-03-02T16:10:17.527Z,36.80
2024-03-02T16:15:19.765Z,43.50
2024-03-02T16:20:21.672Z,48.60
2024-03-02T16:25:26.294Z,48.90
2024-03-02T16:30:28.413Z,46.40
2024-03-02T16:35:30.431Z,46.40
2024-03-02T16:40:33.061Z,48.50
2024-03-02T16:45:35.564Z,48.80
2024-03-02T16:50:37.590Z,50.50
2024-03-02T16:55:39.526Z,43.20
2024-03-02T17:00:42.297Z,44.50
2024-03-02T17:05:44.332Z,42.70
2024-03-02T17:10:47.448Z,46.10
2024-03-02T17:15:49.411Z,47.70
2024-03-02T17:20:51.777Z,53.90
2024-03-02T17:25:53.800Z,54.60
2024-03-02T17:30:56.723Z,50.20
2024-03-02T17:35:59.145Z,52.10
2024-03-02T17:41:02.044Z,49.80
2024-03-02T17:46:04.321Z,49.80
2024-03-02T17:51:09.413Z,43.90
2024-03-02T17:56:12.497Z,49.10
2024-03-02T18:01:16.594Z,49.30
2024-03-02T18:06:18.864Z,52.20
2024-03-02T18:11:24.855Z,55.50
2024-03-02T18:16:27.463Z,53.80
2024-03-02T18:21:30.212Z,57.70
2024-03-02T18:26:34.460Z,57.60
2024-03-02T18:31:36.553Z,69.00
2024-03-02T18:36:38.432Z,71.60
2024-03-02T18:41:40.344Z,79.30
2024-03-02T18:46:42.574Z,80.60
2024-03-02T18:51:44.488Z,82.30
2024-03-02T18:56:46.618Z,81.20
2024-03-02T19:01:50.580Z,77.60
2024-03-02T19:06:52.904Z,78.30
2024-03-02T19:11:56.504Z,74.30
2024-03-02T19:16:58.525Z,80.00
2024-03-02T19:22:05.451Z,79.10
2024-03-02T19:27:12.528Z,74.10
2024-03-02T19:32:18.412Z,84.40
2024-03-02T19:37:22.904Z,78.10
2024-03-02T19:42:24.770Z,80.60
2024-03-02T19:47:27.681Z,80.10
2024-03-02T19:52:29.873Z,79.50
2024-03-02T19:57:32.075Z,73.80
2024-03-02T20:02:34.130Z,85.50
2024-03-02T20:07:37.162Z,79.10
2024-03-02T20:12:39.583Z,78.90
2024-03-02T20:17:41.624Z,82.30
2024-03-02T20:22:44.292Z,85.30
2024-03-02T20:27:46.562Z,84.40
2024-03-02T20:32:48.550Z,81.00
2024-03-02T20:37:51.388Z,91.40
2024-03-02T20:42:53.257Z,84.60
2024-03-02T20:47:55.245Z,85.80
2024-03-02T20:53:01.705Z,83.20
2024-03-02T20:58:03.726Z,83.40
2024-03-02T21:03:06.154Z,84.70
2024-03-02T21:08:10.095Z,78.40
2024-03-02T21:13:12.154Z,75.00
2024-03-02T21:18:14.169Z,70.50
2024-03-02T21:23:17.484Z,72.60
2024-03-02T21:28:19.602Z,72.20
2024-03-02T21:33:21.497Z,74.00
2024-03-02T21:38:25.015Z,68.70
2024-03-02T21:43:32.386Z,68.00
2024-03-02T21:48:35.650Z,69.70
2024-03-02T21:53:37.553Z,69.40
2024-03-02T21:58:40.477Z,76.20
2024-03-02T22:03:46.882Z,74.40
2024-03-02T22:08:53.005Z,73.00
2024-03-02T22:13:55.010Z,83.40
2024-03-02T22:18:56.981Z,80.10
2024-03-02T22:23:58.944Z,77.20
2024-03-02T22:29:00.855Z,78.70
2024-03-02T22:34:02.743Z,85.90
2024-03-02T22:39:05.073Z,85.00
2024-03-02T22:44:07.181Z,85.30
2024-03-02T22:49:09.255Z,76.80
2024-03-02T22:54:12.796Z,75.20
2024-03-02T22:59:15.526Z,83.60
2024-03-02T23:04:17.406Z,77.60
2024-03-02T23:09:19.362Z,82.20
2024-03-02T23:14:21.549Z,79.60
2024-03-02T23:19:24.283Z,77.20
2024-03-02T23:24:26.353Z,73.40
2024-03-02T23:29:28.250Z,73.00
2024-03-02T23:34:30.287Z,85.10
2024-03-02T23:39:51.386Z,79.00
2024-03-02T23:44:53.261Z,79.90
2024-03-02T23:49:55.324Z,77.40
2024-03-02T23:54:57.366Z,70.90
2024-03-02T23:59:59.604Z,72.20
